X  Fermer Données météorologiques d'aviation de Metar     KRYV Watertown Municipal Airport
Température
39°F Température
39°F Point de rosée
100% Humidité



Vitesse
7 MPH
11 KM/H
3 M/S
6 KTS



50°
NE
Conditions actuelles

Brouillard Brouillard
Pression 1010.12 (hPa) - 29.83 (inHg)
Visibilité 3.7 (mile) - 6 (km)
Aéroport
Code de l'aéroport KRYV

Emplacement: Watertown Municipal Airport
Distance: 8 (mi)

Metar:
KRYV 251315Z AUTO 05006KT 4SM BR OVC004 04/04 A2983 RMK AO2 T00400040

Temps: 25-11-2020 07:15 CST